MSC Aniello — 3FYW9 — position and weather

sailwx.info

Track history (hours):
 
Tides and Currents Weather Stations Pressure Air Temp Water Temp Dewpoint Dewpoint Depression Visibility Wind Speed Wind Dir Waves Ship Positions

MSC Aniello

Last reported at 2017-Nov-17 21:46 UTC. Time now 2017-Nov-19 18:20 UTC.
Position N 25°42' W 079°29'.

Length 259 m; draft 7.9 m.

Type: Ship (hazmat cat A). MMSI: 357506000.

Date/timePositionNaut miles runAvg speedWind from/ knotsBaromVisibWave heightAir tempDewpointWater temp
2017-Nov-17 21:46N 25°42' W 079°29'413.1
2017-Nov-17 21:29N 25°39' W 079°30'613.0
2017-Nov-17 21:00N 25°33' W 079°32'  
2017-Nov-15 14:51N 19°12' W 095°44'720.6
2017-Nov-15 14:30N 19°12' W 095°51'918.7
2017-Nov-15 14:00N 19°11' W 096°01'611.8
2017-Nov-15 13:30N 19°12' W 096°07'1 2.2
2017-Nov-15 12:59N 19°13' W 096°08'0 0.0
2017-Nov-15 12:29N 19°13' W 096°08'0 0.0
2017-Nov-15 11:59N 19°13' W 096°08'0 0.0
2017-Nov-15 11:29N 19°13' W 096°08'0 0.0
2017-Nov-15 10:59N 19°13' W 096°08'0 0.0
2017-Nov-15 10:29N 19°13' W 096°08'0 0.0
2017-Nov-15 09:59N 19°13' W 096°08'0 0.0
2017-Nov-15 09:29N 19°13' W 096°08'0 0.0
2017-Nov-15 08:59N 19°13' W 096°08'0 0.0
2017-Nov-15 08:26N 19°13' W 096°08'0 0.0
2017-Nov-15 07:59N 19°13' W 096°08'0 0.0
2017-Nov-15 07:29N 19°13' W 096°08'0 0.0
2017-Nov-15 06:59N 19°13' W 096°08'0 0.0
2017-Nov-15 06:29N 19°13' W 096°08'0 0.0
2017-Nov-15 05:59N 19°13' W 096°08'0 0.0
2017-Nov-15 05:29N 19°13' W 096°08'0 0.0
2017-Nov-15 04:59N 19°13' W 096°08'0 0.0
2017-Nov-15 04:29N 19°13' W 096°08'0 0.0
2017-Nov-15 03:59N 19°13' W 096°08'0 0.0
2017-Nov-15 03:29N 19°13' W 096°08'0 0.0
2017-Nov-15 02:59N 19°13' W 096°08'0 0.0
2017-Nov-15 02:29N 19°13' W 096°08'0 0.0
2017-Nov-15 01:59N 19°13' W 096°08'0 0.0
2017-Nov-15 01:26N 19°13' W 096°08'0 0.0
2017-Nov-15 00:59N 19°13' W 096°08'0 0.0
2017-Nov-15 00:29N 19°13' W 096°08'0 0.0
2017-Nov-14 23:59N 19°13' W 096°08'0 0.0
2017-Nov-14 23:29N 19°13' W 096°08'0 0.0
2017-Nov-14 22:50N 19°13' W 096°08'0 0.0
2017-Nov-14 22:29N 19°13' W 096°08'0 0.8
2017-Nov-14 22:00N 19°12' W 096°08'3 6.7
2017-Nov-14 21:30N 19°12' W 096°05'4 7.8
2017-Nov-14 21:00N 19°12' W 096°00'4 8.2
2017-Nov-14 20:30N 19°14' W 095°56'2 5.0
2017-Nov-14 20:00N 19°16' W 095°55'1 2.2
2017-Nov-14 19:30N 19°17' W 095°55'5 9.8
2017-Nov-14 19:00N 19°12' W 095°55'1 2.6
2017-Nov-14 18:30N 19°13' W 095°54'2 3.1
2017-Nov-14 18:01N 19°15' W 095°55'2 3.2
2017-Nov-14 17:29N 19°16' W 095°55'2 3.1
2017-Nov-14 17:01N 19°18' W 095°55'1 2.8
2017-Nov-14 16:30N 19°19' W 095°55'5 9.3
2017-Nov-14 16:00N 19°16' W 095°51'1 3.0
2017-Nov-14 15:30N 19°16' W 095°50'1 2.6
2017-Nov-14 15:00N 19°17' W 095°50'1 2.6
2017-Nov-14 14:30N 19°18' W 095°51'1 2.6
2017-Nov-14 14:00N 19°19' W 095°51'1 2.4
2017-Nov-14 13:30N 19°20' W 095°52'1 2.3
2017-Nov-14 13:00N 19°22' W 095°52'1 1.8
2017-Nov-14 12:30N 19°23' W 095°52'5 9.1
2017-Nov-14 12:00N 19°19' W 095°49'510.5
2017-Nov-14 11:30N 19°16' W 095°45'1 2.1
2017-Nov-14 11:00N 19°16' W 095°46'1 2.6
2017-Nov-14 10:30N 19°17' W 095°46'1 2.6
2017-Nov-14 10:00N 19°18' W 095°47'1 2.6
2017-Nov-14 09:30N 19°19' W 095°48'1 2.7
2017-Nov-14 08:58N 19°21' W 095°49'1 2.6
2017-Nov-14 08:26N 19°22' W 095°49'1 2.6
2017-Nov-14 08:00N 19°23' W 095°50'1 1.9
2017-Nov-14 07:29N 19°22' W 095°50'4 9.0
2017-Nov-14 07:00N 19°17' W 095°50'1 2.7
2017-Nov-14 06:30N 19°17' W 095°51'1 2.3
2017-Nov-14 06:00N 19°18' W 095°51'1 2.5
2017-Nov-14 05:29N 19°19' W 095°52'1 2.6
2017-Nov-14 05:00N 19°20' W 095°52'1 2.7
2017-Nov-14 04:30N 19°21' W 095°52'1 2.7
2017-Nov-14 04:00N 19°22' W 095°53'3 5.8
2017-Nov-14 03:31N 19°20' W 095°52'4 7.8
2017-Nov-14 03:00N 19°16' W 095°51'1 2.6
2017-Nov-14 02:30N 19°17' W 095°51'1 2.5
2017-Nov-14 02:00N 19°18' W 095°52'1 2.4
2017-Nov-14 01:30N 19°20' W 095°52'1 2.6
2017-Nov-14 01:00N 19°21' W 095°53'4 7.0
2017-Nov-14 00:30N 19°19' W 095°56'611.7
2017-Nov-14 00:00N 19°15' W 095°60'1 2.5
2017-Nov-13 23:30N 19°16' W 096°01'1 2.7
2017-Nov-13 23:00N 19°17' W 096°01'2 3.5
2017-Nov-13 22:30N 19°19' W 096°00'4 7.6
2017-Nov-13 22:00N 19°23' W 096°00'  
2017-Nov-11 03:22N 29°22' W 094°48'615.2
2017-Nov-11 03:00N 29°28' W 094°51'815.5
2017-Nov-11 02:31N 29°34' W 094°55'5 9.5
2017-Nov-11 02:00N 29°37' W 095°00'0 0.2
2017-Nov-11 01:28N 29°37' W 095°00'0 0.0
2017-Nov-11 00:58N 29°37' W 095°00'0 0.0
2017-Nov-11 00:28N 29°37' W 095°00'0 0.0
2017-Nov-10 23:58N 29°37' W 095°00'0 0.0
2017-Nov-10 23:28N 29°37' W 095°00'0 0.0
2017-Nov-10 22:58N 29°37' W 095°00'0 0.0
2017-Nov-10 22:28N 29°37' W 095°00'0 0.0
2017-Nov-10 21:58N 29°37' W 095°00'0 0.0
2017-Nov-10 21:28N 29°37' W 095°00'0 0.0
2017-Nov-10 20:58N 29°37' W 095°00'0 0.0
2017-Nov-10 20:28N 29°37' W 095°00'0 0.0
2017-Nov-10 19:58N 29°37' W 095°00'0 0.0
2017-Nov-10 19:28N 29°37' W 095°00'0 0.0
2017-Nov-10 18:58N 29°37' W 095°00'0 0.0
2017-Nov-10 18:28N 29°37' W 095°00'0 0.0
2017-Nov-10 17:58N 29°37' W 095°00'0 0.0
2017-Nov-10 17:28N 29°37' W 095°00'0 0.0
2017-Nov-10 16:58N 29°37' W 095°00'0 0.0
2017-Nov-10 16:28N 29°37' W 095°00'0 0.0
2017-Nov-10 15:58N 29°37' W 095°00'0 0.0
2017-Nov-10 15:28N 29°37' W 095°00'0 0.0
2017-Nov-10 14:58N 29°37' W 095°00'0 0.0
2017-Nov-10 14:28N 29°37' W 095°00'0 0.0
2017-Nov-10 13:58N 29°37' W 095°00'0 0.0
2017-Nov-10 13:28N 29°37' W 095°00'0 0.0
2017-Nov-10 12:55N 29°37' W 095°00'0 0.0
2017-Nov-10 12:28N 29°37' W 095°00'0 0.0
2017-Nov-10 11:58N 29°37' W 095°00'0 0.0
2017-Nov-10 11:29N 29°37' W 095°00'1 1.8
2017-Nov-10 11:00N 29°37' W 095°01'1 2.5
2017-Nov-10 10:30N 29°37' W 094°60'4 7.7
2017-Nov-10 10:00N 29°35' W 094°56'714.6
2017-Nov-10 09:30N 29°29' W 094°51'814.6
2017-Nov-10 08:59N 29°22' W 094°48'  
Track history (hours):
 
Tides and Currents Weather Stations Pressure Air Temp Water Temp Dewpoint Dewpoint Depression Visibility Wind Speed Wind Dir Waves Ship Positions

MSC Aniello

Last reported at 2017-Nov-17 21:46 UTC. Time now 2017-Nov-19 18:21 UTC.
Position N 25°42' W 079°29'.

Length 259 m; draft 7.9 m.

Type: Ship (hazmat cat A). MMSI: 357506000.

Date/timePositionNaut miles runAvg speedWind from/ knotsBaromVisibWave heightAir tempDewpointWater temp
2017-Nov-17 21:46N 25°42' W 079°29'413.1
2017-Nov-17 21:29N 25°39' W 079°30'613.0
2017-Nov-17 21:00N 25°33' W 079°32'  
2017-Nov-15 14:51N 19°12' W 095°44'720.6
2017-Nov-15 14:30N 19°12' W 095°51'918.7
2017-Nov-15 14:00N 19°11' W 096°01'611.8
2017-Nov-15 13:30N 19°12' W 096°07'1 2.2
2017-Nov-15 12:59N 19°13' W 096°08'0 0.0
2017-Nov-15 12:29N 19°13' W 096°08'0 0.0
2017-Nov-15 11:59N 19°13' W 096°08'0 0.0
2017-Nov-15 11:29N 19°13' W 096°08'0 0.0
2017-Nov-15 10:59N 19°13' W 096°08'0 0.0
2017-Nov-15 10:29N 19°13' W 096°08'0 0.0
2017-Nov-15 09:59N 19°13' W 096°08'0 0.0
2017-Nov-15 09:29N 19°13' W 096°08'0 0.0
2017-Nov-15 08:59N 19°13' W 096°08'0 0.0
2017-Nov-15 08:26N 19°13' W 096°08'0 0.0
2017-Nov-15 07:59N 19°13' W 096°08'0 0.0
2017-Nov-15 07:29N 19°13' W 096°08'0 0.0
2017-Nov-15 06:59N 19°13' W 096°08'0 0.0
2017-Nov-15 06:29N 19°13' W 096°08'0 0.0
2017-Nov-15 05:59N 19°13' W 096°08'0 0.0
2017-Nov-15 05:29N 19°13' W 096°08'0 0.0
2017-Nov-15 04:59N 19°13' W 096°08'0 0.0
2017-Nov-15 04:29N 19°13' W 096°08'0 0.0
2017-Nov-15 03:59N 19°13' W 096°08'0 0.0
2017-Nov-15 03:29N 19°13' W 096°08'0 0.0
2017-Nov-15 02:59N 19°13' W 096°08'0 0.0
2017-Nov-15 02:29N 19°13' W 096°08'0 0.0
2017-Nov-15 01:59N 19°13' W 096°08'0 0.0
2017-Nov-15 01:26N 19°13' W 096°08'0 0.0
2017-Nov-15 00:59N 19°13' W 096°08'0 0.0
2017-Nov-15 00:29N 19°13' W 096°08'0 0.0
2017-Nov-14 23:59N 19°13' W 096°08'0 0.0
2017-Nov-14 23:29N 19°13' W 096°08'0 0.0
2017-Nov-14 22:50N 19°13' W 096°08'0 0.0
2017-Nov-14 22:29N 19°13' W 096°08'0 0.8
2017-Nov-14 22:00N 19°12' W 096°08'3 6.7
2017-Nov-14 21:30N 19°12' W 096°05'4 7.8
2017-Nov-14 21:00N 19°12' W 096°00'4 8.2
2017-Nov-14 20:30N 19°14' W 095°56'2 5.0
2017-Nov-14 20:00N 19°16' W 095°55'1 2.2
2017-Nov-14 19:30N 19°17' W 095°55'5 9.8
2017-Nov-14 19:00N 19°12' W 095°55'1 2.6
2017-Nov-14 18:30N 19°13' W 095°54'2 3.1
2017-Nov-14 18:01N 19°15' W 095°55'2 3.2
2017-Nov-14 17:29N 19°16' W 095°55'2 3.1
2017-Nov-14 17:01N 19°18' W 095°55'1 2.8
2017-Nov-14 16:30N 19°19' W 095°55'5 9.3
2017-Nov-14 16:00N 19°16' W 095°51'1 3.0
2017-Nov-14 15:30N 19°16' W 095°50'1 2.6
2017-Nov-14 15:00N 19°17' W 095°50'1 2.6
2017-Nov-14 14:30N 19°18' W 095°51'1 2.6
2017-Nov-14 14:00N 19°19' W 095°51'1 2.4
2017-Nov-14 13:30N 19°20' W 095°52'1 2.3
2017-Nov-14 13:00N 19°22' W 095°52'1 1.8
2017-Nov-14 12:30N 19°23' W 095°52'5 9.1
2017-Nov-14 12:00N 19°19' W 095°49'510.5
2017-Nov-14 11:30N 19°16' W 095°45'1 2.1
2017-Nov-14 11:00N 19°16' W 095°46'1 2.6
2017-Nov-14 10:30N 19°17' W 095°46'1 2.6
2017-Nov-14 10:00N 19°18' W 095°47'1 2.6
2017-Nov-14 09:30N 19°19' W 095°48'1 2.7
2017-Nov-14 08:58N 19°21' W 095°49'1 2.6
2017-Nov-14 08:26N 19°22' W 095°49'1 2.6
2017-Nov-14 08:00N 19°23' W 095°50'1 1.9
2017-Nov-14 07:29N 19°22' W 095°50'4 9.0
2017-Nov-14 07:00N 19°17' W 095°50'1 2.7
2017-Nov-14 06:30N 19°17' W 095°51'1 2.3
2017-Nov-14 06:00N 19°18' W 095°51'1 2.5
2017-Nov-14 05:29N 19°19' W 095°52'1 2.6
2017-Nov-14 05:00N 19°20' W 095°52'1 2.7
2017-Nov-14 04:30N 19°21' W 095°52'1 2.7
2017-Nov-14 04:00N 19°22' W 095°53'3 5.8
2017-Nov-14 03:31N 19°20' W 095°52'4 7.8
2017-Nov-14 03:00N 19°16' W 095°51'1 2.6
2017-Nov-14 02:30N 19°17' W 095°51'1 2.5
2017-Nov-14 02:00N 19°18' W 095°52'1 2.4
2017-Nov-14 01:30N 19°20' W 095°52'1 2.6
2017-Nov-14 01:00N 19°21' W 095°53'4 7.0
2017-Nov-14 00:30N 19°19' W 095°56'611.7
2017-Nov-14 00:00N 19°15' W 095°60'1 2.5
2017-Nov-13 23:30N 19°16' W 096°01'1 2.7
2017-Nov-13 23:00N 19°17' W 096°01'2 3.5
2017-Nov-13 22:30N 19°19' W 096°00'4 7.6
2017-Nov-13 22:00N 19°23' W 096°00'  
2017-Nov-11 03:22N 29°22' W 094°48'615.2
2017-Nov-11 03:00N 29°28' W 094°51'815.5
2017-Nov-11 02:31N 29°34' W 094°55'5 9.5
2017-Nov-11 02:00N 29°37' W 095°00'0 0.2
2017-Nov-11 01:28N 29°37' W 095°00'0 0.0
2017-Nov-11 00:58N 29°37' W 095°00'0 0.0
2017-Nov-11 00:28N 29°37' W 095°00'0 0.0
2017-Nov-10 23:58N 29°37' W 095°00'0 0.0
2017-Nov-10 23:28N 29°37' W 095°00'0 0.0
2017-Nov-10 22:58N 29°37' W 095°00'0 0.0
2017-Nov-10 22:28N 29°37' W 095°00'0 0.0
2017-Nov-10 21:58N 29°37' W 095°00'0 0.0
2017-Nov-10 21:28N 29°37' W 095°00'0 0.0
2017-Nov-10 20:58N 29°37' W 095°00'0 0.0
2017-Nov-10 20:28N 29°37' W 095°00'0 0.0
2017-Nov-10 19:58N 29°37' W 095°00'0 0.0
2017-Nov-10 19:28N 29°37' W 095°00'0 0.0
2017-Nov-10 18:58N 29°37' W 095°00'0 0.0
2017-Nov-10 18:28N 29°37' W 095°00'0 0.0
2017-Nov-10 17:58N 29°37' W 095°00'0 0.0
2017-Nov-10 17:28N 29°37' W 095°00'0 0.0
2017-Nov-10 16:58N 29°37' W 095°00'0 0.0
2017-Nov-10 16:28N 29°37' W 095°00'0 0.0
2017-Nov-10 15:58N 29°37' W 095°00'0 0.0
2017-Nov-10 15:28N 29°37' W 095°00'0 0.0
2017-Nov-10 14:58N 29°37' W 095°00'0 0.0
2017-Nov-10 14:28N 29°37' W 095°00'0 0.0
2017-Nov-10 13:58N 29°37' W 095°00'0 0.0
2017-Nov-10 13:28N 29°37' W 095°00'0 0.0
2017-Nov-10 12:55N 29°37' W 095°00'0 0.0
2017-Nov-10 12:28N 29°37' W 095°00'0 0.0
2017-Nov-10 11:58N 29°37' W 095°00'0 0.0
2017-Nov-10 11:29N 29°37' W 095°00'1 1.8
2017-Nov-10 11:00N 29°37' W 095°01'1 2.5
2017-Nov-10 10:30N 29°37' W 094°60'4 7.7
2017-Nov-10 10:00N 29°35' W 094°56'714.6
2017-Nov-10 09:30N 29°29' W 094°51'814.6
2017-Nov-10 08:59N 29°22' W 094°48'  

Dump ship's entire track history